KONA/ONA METAR and TAF weather

Enter ICAO airport designator
Station Type Date Time Source
KONA METAR 2019/10/21 02:15 UTC NOAA

KONA 210215Z AUTO 00000KT 10SM CLR 11/08 A2985 RMK AO2


Station Type Date Time Source
KONA Decoded METAR 2019/10/21 02:15 UTC NOAA

Winona, Winona Municipal Airport-Max Conrad Field, MN, United States (KONA) 44-05N 091-42W
Oct 20, 2019 - 10:15 PM EDT / 2019.10.21 0215 UTC
Wind: Calm:0
Visibility: 10 mile(s):0
Sky conditions: clear
Temperature: 51 F (11 C)
Dew Point: 46 F (8 C)
Relative Humidity: 81%
Pressure (altimeter): 29.85 in. Hg (1010 hPa)
ob: KONA 210215Z AUTO 00000KT 10SM CLR 11/08 A2985 RMK AO2
cycle: 2

Station Type Date Time Source
KONA TAF UTC NOAA

Error!

Example: see airport list